Time,TemperatureF,DewpointF,PressureIn,WindDirection,WindDirectionDegrees,WindSpeedMPH,WindSpeedGustMPH,Humidity,HourlyPrecipIn,Conditions,Clouds,dailyrainin,SoftwareType,DateUTC
2013-11-03 00:01:00,47.7,10.7,29.41,NW,308,0.0,0.0,22,0.00,,---,0.00,VWS V13.01,2013-11-03 04:01:00,
2013-11-03 00:02:00,47.7,10.7,29.41,NW,308,0.0,0.0,22,0.00,,---,0.00,VWS V13.01,2013-11-03 04:02:00,
2013-11-03 00:04:00,47.7,10.7,29.41,NW,308,0.0,0.0,22,0.00,,---,0.00,VWS V13.01,2013-11-03 04:04:00,
2013-11-03 00:09:00,47.8,10.9,29.41,NW,308,0.0,0.0,22,0.00,,---,0.00,VWS V13.01,2013-11-03 04:09:00,
2013-11-03 00:14:00,48.0,11.0,29.41,NNW,341,0.0,0.0,22,0.00,,---,0.00,VWS V13.01,2013-11-03 04:14:00,
2013-11-03 00:20:00,48.0,11.0,29.41,NW,319,0.0,0.0,22,0.00,,---,0.00,VWS V13.01,2013-11-03 04:20:00,
2013-11-03 00:25:00,48.2,7.9,29.41,NW,316,0.0,0.0,19,0.00,,---,0.00,VWS V13.01,2013-11-03 04:25:00,
2013-11-03 00:30:00,48.2,7.9,29.41,NW,317,0.0,0.0,19,0.00,,---,0.00,VWS V13.01,2013-11-03 04:30:00,
2013-11-03 00:35:00,48.4,8.0,29.41,NW,317,0.0,0.0,19,0.00,,---,0.00,VWS V13.01,2013-11-03 04:35:00,
2013-11-03 00:40:00,48.4,8.0,29.41,NNW,330,0.0,0.0,19,0.00,,---,0.00,VWS V13.01,2013-11-03 04:40:00,
2013-11-03 00:45:00,48.4,8.0,29.41,NNW,330,0.0,0.0,19,0.00,,---,0.00,VWS V13.01,2013-11-03 04:45:00,
2013-11-03 00:50:00,48.4,8.0,29.41,NNW,330,0.0,0.0,19,0.00,,---,0.00,VWS V13.01,2013-11-03 04:50:00,
2013-11-03 00:56:00,48.6,8.2,29.41,NW,325,0.0,0.0,19,0.00,,---,0.00,VWS V13.01,2013-11-03 04:56:00,
2013-11-03 01:00:00,47.1,10.2,29.44,NW,314,0.0,0.0,22,0.00,,---,0.00,VWS V13.01,2013-11-03 05:00:00,
2013-11-03 01:01:00,48.6,8.2,29.44,NW,325,0.0,0.0,19,0.00,,---,0.00,VWS V13.01,2013-11-03 05:01:00,
2013-11-03 01:02:00,47.1,10.2,29.44,NW,314,0.0,0.0,22,0.00,,---,0.00,VWS V13.01,2013-11-03 05:02:00,
2013-11-03 01:03:00,46.9,10.1,29.44,NW,314,0.0,0.0,22,0.00,,---,0.00,VWS V13.01,2013-11-03 05:03:00,
2013-11-03 01:04:00,46.9,10.1,29.44,NW,314,0.0,0.0,22,0.00,,---,0.00,VWS V13.01,2013-11-03 05:04:00,
2013-11-03 01:05:00,46.9,10.1,29.44,NW,314,0.0,0.0,22,0.00,,---,0.00,VWS V13.01,2013-11-03 05:05:00,
2013-11-03 01:06:00,48.6,8.2,29.44,NW,314,0.0,0.0,19,0.00,,---,0.00,VWS V13.01,2013-11-03 05:06:00,
2013-11-03 01:07:00,46.8,9.9,29.44,NW,314,0.0,0.0,22,0.00,,---,0.00,VWS V13.01,2013-11-03 05:07:00,
2013-11-03 01:08:00,46.8,9.9,29.44,NW,314,0.0,0.0,22,0.00,,---,0.00,VWS V13.01,2013-11-03 05:08:00,
2013-11-03 01:09:00,46.8,9.9,29.44,NW,314,0.0,0.0,22,0.00,,---,0.00,VWS V13.01,2013-11-03 05:09:00,
2013-11-03 01:10:00,46.8,9.9,29.44,NW,314,0.0,0.0,22,0.00,,---,0.00,VWS V13.01,2013-11-03 05:10:00,
2013-11-03 01:11:00,48.4,8.0,29.44,NW,314,0.0,0.0,19,0.00,,---,0.00,VWS V13.01,2013-11-03 05:11:00,
2013-11-03 01:12:00,46.6,9.8,29.44,NW,314,0.0,0.0,22,0.00,,---,0.00,VWS V13.01,2013-11-03 05:12:00,
2013-11-03 01:13:00,46.6,9.8,29.44,NW,314,0.0,0.0,22,0.00,,---,0.00,VWS V13.01,2013-11-03 05:13:00,
2013-11-03 01:14:00,46.6,9.8,29.44,NW,314,0.0,0.0,22,0.00,,---,0.00,VWS V13.01,2013-11-03 05:14:00,
2013-11-03 01:15:00,46.6,9.8,29.44,NW,314,0.0,0.0,22,0.00,,---,0.00,VWS V13.01,2013-11-03 05:15:00,
2013-11-03 01:16:00,48.2,7.9,29.44,NW,314,0.0,0.0,19,0.00,,---,0.00,VWS V13.01,2013-11-03 05:16:00,
2013-11-03 01:17:00,46.4,9.6,29.44,NW,314,0.0,0.0,22,0.00,,---,0.00,VWS V13.01,2013-11-03 05:17:00,
2013-11-03 01:18:00,46.4,9.6,29.44,NW,314,0.0,0.0,22,0.00,,---,0.00,VWS V13.01,2013-11-03 05:18:00,
2013-11-03 01:19:00,46.4,9.6,29.44,NW,314,0.0,0.0,22,0.00,,---,0.00,VWS V13.01,2013-11-03 05:19:00,
2013-11-03 01:20:00,46.4,9.6,29.44,NW,314,0.0,0.0,22,0.00,,---,0.00,VWS V13.01,2013-11-03 05:20:00,
2013-11-03 01:21:00,48.0,7.7,29.44,NW,314,0.0,0.0,19,0.00,,---,0.00,VWS V13.01,2013-11-03 05:21:00,
2013-11-03 01:22:00,46.4,9.6,29.44,NW,324,0.0,0.0,22,0.00,,---,0.00,VWS V13.01,2013-11-03 05:22:00,
2013-11-03 01:23:00,46.4,9.6,29.44,NW,324,0.0,0.0,22,0.00,,---,0.00,VWS V13.01,2013-11-03 05:23:00,
2013-11-03 01:24:00,46.4,9.6,29.44,NW,324,0.0,0.0,22,0.00,,---,0.00,VWS V13.01,2013-11-03 05:24:00,
2013-11-03 01:25:00,46.4,9.6,29.44,NW,323,0.0,0.0,22,0.00,,---,0.00,VWS V13.01,2013-11-03 05:25:00,
2013-11-03 01:26:00,47.8,7.6,29.44,NW,314,0.0,0.0,19,0.00,,---,0.00,VWS V13.01,2013-11-03 05:26:00,
2013-11-03 01:27:00,46.4,9.6,29.44,NW,324,0.0,0.0,22,0.00,,---,0.00,VWS V13.01,2013-11-03 05:27:00,
2013-11-03 01:28:00,46.4,9.6,29.44,NW,324,0.0,0.0,22,0.00,,---,0.00,VWS V13.01,2013-11-03 05:28:00,
2013-11-03 01:29:00,46.4,9.6,29.44,NW,312,0.0,0.0,22,0.00,,---,0.00,VWS V13.01,2013-11-03 05:29:00,
2013-11-03 01:30:00,46.4,9.6,29.44,NW,313,0.0,0.0,22,0.00,,---,0.00,VWS V13.01,2013-11-03 05:30:00,
2013-11-03 01:31:00,47.7,7.4,29.44,NW,314,0.0,0.0,19,0.00,,---,0.00,VWS V13.01,2013-11-03 05:31:00,
2013-11-03 01:32:00,46.4,9.6,29.44,NW,312,0.0,0.0,22,0.00,,---,0.00,VWS V13.01,2013-11-03 05:32:00,
2013-11-03 01:33:00,46.4,9.6,29.44,NW,312,0.0,0.0,22,0.00,,---,0.00,VWS V13.01,2013-11-03 05:33:00,
2013-11-03 01:35:00,46.4,9.6,29.44,NW,311,0.0,0.0,22,0.00,,---,0.00,VWS V13.01,2013-11-03 05:35:00,
2013-11-03 01:36:00,47.7,7.4,29.44,NW,314,0.0,0.0,19,0.00,,---,0.00,VWS V13.01,2013-11-03 05:36:00,
2013-11-03 01:37:00,46.4,11.6,29.44,NW,321,0.0,0.0,24,0.00,,---,0.00,VWS V13.01,2013-11-03 05:37:00,
2013-11-03 01:38:00,46.4,11.6,29.44,NW,321,0.0,0.0,24,0.00,,---,0.00,VWS V13.01,2013-11-03 05:38:00,
2013-11-03 01:39:00,46.4,11.6,29.44,NW,321,0.0,0.0,24,0.00,,---,0.00,VWS V13.01,2013-11-03 05:39:00,
2013-11-03 01:41:00,47.5,10.6,29.44,NW,314,0.0,0.0,22,0.00,,---,0.00,VWS V13.01,2013-11-03 05:41:00,
2013-11-03 01:44:00,46.4,11.6,29.47,NW,317,0.0,0.0,24,0.00,,---,0.00,VWS V13.01,2013-11-03 05:44:00,
2013-11-03 01:47:00,47.3,10.4,29.44,NW,314,0.0,0.0,22,0.00,,---,0.00,VWS V13.01,2013-11-03 05:47:00,
2013-11-03 01:52:00,47.3,10.4,29.44,NW,314,0.0,0.0,22,0.00,,---,0.00,VWS V13.01,2013-11-03 05:52:00,
2013-11-03 01:57:00,47.3,10.4,29.44,NW,314,0.0,0.0,22,0.00,,---,0.00,VWS V13.01,2013-11-03 05:57:00,
2013-11-03 01:21:00,46.4,9.6,29.44,NW,324,0.0,0.0,22,0.00,,---,0.00,VWS V13.01,2013-11-03 06:21:00,
2013-11-03 01:26:00,46.4,9.6,29.44,NW,324,0.0,0.0,22,0.00,,---,0.00,VWS V13.01,2013-11-03 06:26:00,
2013-11-03 01:31:00,46.4,9.6,29.44,NW,312,0.0,0.0,22,0.00,,---,0.00,VWS V13.01,2013-11-03 06:31:00,
2013-11-03 01:37:00,46.4,11.6,29.44,NW,321,0.0,0.0,24,0.00,,---,0.00,VWS V13.01,2013-11-03 06:37:00,
2013-11-03 01:42:00,46.4,11.6,29.44,NW,306,0.0,0.0,24,0.00,,---,0.00,VWS V13.01,2013-11-03 06:42:00,
2013-11-03 01:47:00,46.4,11.6,29.47,NW,317,0.0,0.0,24,0.00,,---,0.00,VWS V13.01,2013-11-03 06:47:00,
2013-11-03 01:52:00,46.4,9.6,29.47,NW,307,0.0,0.0,22,0.00,,---,0.00,VWS V13.01,2013-11-03 06:52:00,
2013-11-03 01:57:00,46.4,9.6,29.47,North,349,0.0,0.0,22,0.00,,---,0.00,VWS V13.01,2013-11-03 06:57:00,
2013-11-03 02:03:00,46.2,12.4,29.47,North,349,0.0,0.0,25,0.00,,---,0.00,VWS V13.01,2013-11-03 07:03:00,
2013-11-03 02:08:00,46.2,12.4,29.47,NNW,348,0.0,0.0,25,0.00,,---,0.00,VWS V13.01,2013-11-03 07:08:00,
2013-11-03 02:13:00,46.0,12.2,29.47,NNW,345,0.0,0.0,25,0.00,,---,0.00,VWS V13.01,2013-11-03 07:13:00,
2013-11-03 02:18:00,46.0,12.2,29.47,NW,321,0.0,0.0,25,0.00,,---,0.00,VWS V13.01,2013-11-03 07:18:00,
2013-11-03 02:23:00,46.0,12.2,29.47,NW,319,0.0,0.0,25,0.00,,---,0.00,VWS V13.01,2013-11-03 07:23:00,
2013-11-03 02:28:00,45.9,12.0,29.47,NW,311,0.0,0.0,25,0.00,,---,0.00,VWS V13.01,2013-11-03 07:28:00,
2013-11-03 02:33:00,45.7,11.9,29.47,NW,311,0.0,0.0,25,0.00,,---,0.00,VWS V13.01,2013-11-03 07:33:00,
2013-11-03 02:39:00,45.5,13.5,29.47,NW,321,0.0,0.0,27,0.00,,---,0.00,VWS V13.01,2013-11-03 07:39:00,
2013-11-03 02:44:00,45.5,13.5,29.47,North,353,0.0,0.0,27,0.00,,---,0.00,VWS V13.01,2013-11-03 07:44:00,
2013-11-03 02:49:00,45.5,13.5,29.47,WNW,303,0.0,0.0,27,0.00,,---,0.00,VWS V13.01,2013-11-03 07:49:00,
2013-11-03 02:54:00,45.5,14.3,29.47,NNW,336,0.0,0.0,28,0.00,,---,0.00,VWS V13.01,2013-11-03 07:54:00,
2013-11-03 02:59:00,45.5,14.3,29.50,NW,306,0.0,0.0,28,0.00,,---,0.00,VWS V13.01,2013-11-03 07:59:00,
2013-11-03 03:04:00,45.7,14.5,29.50,NNW,335,0.0,0.0,28,0.00,,---,0.00,VWS V13.01,2013-11-03 08:04:00,
2013-11-03 03:09:00,45.7,14.5,29.50,NW,326,0.0,0.0,28,0.00,,---,0.00,VWS V13.01,2013-11-03 08:09:00,
2013-11-03 03:15:00,45.9,14.6,29.50,NW,326,0.0,0.0,28,0.00,,---,0.00,VWS V13.01,2013-11-03 08:15:00,
2013-11-03 03:20:00,45.7,14.5,29.50,North,353,0.0,0.0,28,0.00,,---,0.00,VWS V13.01,2013-11-03 08:20:00,
2013-11-03 03:25:00,45.5,14.3,29.50,NNW,348,0.0,0.0,28,0.00,,---,0.00,VWS V13.01,2013-11-03 08:25:00,
2013-11-03 03:30:00,45.3,14.1,29.50,NNW,348,0.0,0.0,28,0.00,,---,0.00,VWS V13.01,2013-11-03 08:30:00,
2013-11-03 03:35:00,45.1,14.0,29.50,NNW,346,0.0,0.0,28,0.00,,---,0.00,VWS V13.01,2013-11-03 08:35:00,
2013-11-03 03:40:00,45.1,14.0,29.50,WNW,302,0.0,0.0,28,0.00,,---,0.00,VWS V13.01,2013-11-03 08:40:00,
2013-11-03 03:45:00,45.0,13.8,29.50,WNW,296,0.0,0.0,28,0.00,,---,0.00,VWS V13.01,2013-11-03 08:45:00,
2013-11-03 03:50:00,45.0,14.6,29.50,NNE,14,0.0,0.0,29,0.00,,---,0.00,VWS V13.01,2013-11-03 08:50:00,
2013-11-03 03:55:00,45.0,13.8,29.50,NNW,332,0.0,0.0,28,0.00,,---,0.00,VWS V13.01,2013-11-03 08:55:00,
2013-11-03 04:00:00,45.1,14.8,29.50,North,353,0.0,0.0,29,0.00,,---,0.00,VWS V13.01,2013-11-03 09:00:00,
2013-11-03 04:06:00,45.3,14.1,29.50,NNW,334,0.0,0.0,28,0.00,,---,0.00,VWS V13.01,2013-11-03 09:06:00,
2013-11-03 04:11:00,45.3,14.1,29.50,NNW,343,0.0,0.0,28,0.00,,---,0.00,VWS V13.01,2013-11-03 09:11:00,
2013-11-03 04:16:00,45.5,14.3,29.50,North,349,0.0,0.0,28,0.00,,---,0.00,VWS V13.01,2013-11-03 09:16:00,
2013-11-03 04:21:00,45.3,14.1,29.50,North,353,0.0,0.0,28,0.00,,---,0.00,VWS V13.01,2013-11-03 09:21:00,
2013-11-03 04:26:00,45.1,14.0,29.50,NNW,335,0.0,0.0,28,0.00,,---,0.00,VWS V13.01,2013-11-03 09:26:00,
2013-11-03 04:31:00,44.8,12.9,29.53,WNW,283,0.0,0.0,27,0.00,,---,0.00,VWS V13.01,2013-11-03 09:31:00,
2013-11-03 04:36:00,44.6,11.0,29.53,NW,326,0.0,0.0,25,0.00,,---,0.00,VWS V13.01,2013-11-03 09:36:00,
2013-11-03 04:41:00,44.1,8.6,29.53,NE,49,0.0,0.0,23,0.00,,---,0.00,VWS V13.01,2013-11-03 09:41:00,
2013-11-03 04:46:00,43.7,8.3,29.53,North,349,0.0,0.0,23,0.00,,---,0.00,VWS V13.01,2013-11-03 09:46:00,
2013-11-03 04:51:00,43.3,8.0,29.53,NNE,18,0.0,0.0,23,0.00,,---,0.00,VWS V13.01,2013-11-03 09:51:00,
2013-11-03 04:56:00,43.0,7.7,29.53,North,357,0.0,0.0,23,0.00,,---,0.00,VWS V13.01,2013-11-03 09:56:00,
2013-11-03 05:01:00,42.8,7.6,29.56,North,353,0.0,0.0,23,0.00,,---,0.00,VWS V13.01,2013-11-03 10:01:00,
2013-11-03 05:07:00,42.6,7.4,29.56,North,357,0.0,0.0,23,0.00,,---,0.00,VWS V13.01,2013-11-03 10:07:00,
2013-11-03 05:12:00,42.4,10.0,29.56,North,357,0.0,0.0,26,0.00,,---,0.00,VWS V13.01,2013-11-03 10:12:00,
2013-11-03 05:17:00,42.3,7.1,29.56,NNW,345,0.0,4.7,23,0.00,,---,0.00,VWS V13.01,2013-11-03 10:17:00,
2013-11-03 05:22:00,42.3,7.1,29.56,NW,324,0.0,0.0,23,0.00,,---,0.00,VWS V13.01,2013-11-03 10:22:00,
2013-11-03 05:27:00,42.3,7.1,29.56,WNW,295,0.0,0.0,23,0.00,,---,0.00,VWS V13.01,2013-11-03 10:27:00,
2013-11-03 05:32:00,42.3,7.1,29.56,NNW,339,0.0,0.0,23,0.00,,---,0.00,VWS V13.01,2013-11-03 10:32:00,
2013-11-03 05:37:00,42.1,7.0,29.56,North,353,0.0,0.0,23,0.00,,---,0.00,VWS V13.01,2013-11-03 10:37:00,
2013-11-03 05:42:00,42.1,7.0,29.56,North,353,0.0,0.0,23,0.00,,---,0.00,VWS V13.01,2013-11-03 10:42:00,
2013-11-03 05:47:00,42.1,7.0,29.59,NNW,339,0.0,0.0,23,0.00,,---,0.00,VWS V13.01,2013-11-03 10:47:00,
2013-11-03 05:52:00,42.1,7.0,29.59,North,353,0.0,0.0,23,0.00,,---,0.00,VWS V13.01,2013-11-03 10:52:00,
2013-11-03 05:57:00,42.1,7.0,29.59,North,1,0.0,0.0,23,0.00,,---,0.00,VWS V13.01,2013-11-03 10:57:00,
2013-11-03 06:02:00,42.1,7.0,29.59,North,353,0.0,0.0,23,0.00,,---,0.00,VWS V13.01,2013-11-03 11:02:00,
2013-11-03 06:08:00,42.1,5.0,29.59,NNW,338,0.0,0.0,21,0.00,,---,0.00,VWS V13.01,2013-11-03 11:08:00,
2013-11-03 06:13:00,42.1,5.0,29.59,North,2,0.0,0.0,21,0.00,,---,0.00,VWS V13.01,2013-11-03 11:13:00,
2013-11-03 06:18:00,42.1,5.0,29.59,NNW,343,0.0,0.0,21,0.00,,---,0.00,VWS V13.01,2013-11-03 11:18:00,
2013-11-03 06:23:00,42.1,5.0,29.59,NW,311,0.0,0.0,21,0.00,,---,0.00,VWS V13.01,2013-11-03 11:23:00,
2013-11-03 06:28:00,42.1,5.0,29.59,North,10,0.0,0.0,21,0.00,,---,0.00,VWS V13.01,2013-11-03 11:28:00,
2013-11-03 06:33:00,42.1,5.0,29.62,North,9,0.0,0.0,21,0.00,,---,0.00,VWS V13.01,2013-11-03 11:33:00,
2013-11-03 06:38:00,42.1,5.0,29.62,North,9,0.0,0.0,21,0.00,,---,0.00,VWS V13.01,2013-11-03 11:38:00,
2013-11-03 06:43:00,42.1,5.0,29.62,NNW,335,0.0,0.0,21,0.00,,---,0.00,VWS V13.01,2013-11-03 11:43:00,
2013-11-03 06:48:00,42.3,5.1,29.62,NNW,334,0.0,0.0,21,0.00,,---,0.00,VWS V13.01,2013-11-03 11:48:00,
2013-11-03 06:53:00,42.3,5.1,29.62,NNW,332,0.0,2.7,21,0.00,,---,0.00,VWS V13.01,2013-11-03 11:53:00,
2013-11-03 06:58:00,42.3,5.1,29.62,NW,306,0.0,2.7,21,0.00,,---,0.00,VWS V13.01,2013-11-03 11:58:00,
2013-11-03 07:03:00,42.3,5.1,29.62,NW,314,0.0,0.0,21,0.00,,---,0.00,VWS V13.01,2013-11-03 12:03:00,
2013-11-03 07:08:00,42.3,5.1,29.62,NNW,342,0.0,0.0,21,0.00,,---,0.00,VWS V13.01,2013-11-03 12:08:00,
2013-11-03 07:14:00,42.3,5.1,29.65,NW,313,0.0,0.0,21,0.00,,---,0.00,VWS V13.01,2013-11-03 12:14:00,
2013-11-03 07:19:00,42.3,5.1,29.65,NW,326,0.0,0.0,21,0.00,,---,0.00,VWS V13.01,2013-11-03 12:19:00,
2013-11-03 07:24:00,42.1,5.0,29.65,WNW,292,0.0,0.0,21,0.00,,---,0.00,VWS V13.01,2013-11-03 12:24:00,
2013-11-03 07:29:00,41.9,4.8,29.65,NW,312,0.0,0.0,21,0.00,,---,0.00,VWS V13.01,2013-11-03 12:29:00,
2013-11-03 07:34:00,41.9,4.8,29.65,NNW,337,0.0,0.0,21,0.00,,---,0.00,VWS V13.01,2013-11-03 12:34:00,
2013-11-03 07:39:00,42.1,5.0,29.65,NNW,344,0.0,0.0,21,0.00,,---,0.00,VWS V13.01,2013-11-03 12:39:00,
2013-11-03 07:44:00,42.3,5.1,29.68,North,353,0.0,0.0,21,0.00,,---,0.00,VWS V13.01,2013-11-03 12:44:00,
2013-11-03 07:49:00,42.3,5.1,29.68,NNW,341,0.0,0.0,21,0.00,,---,0.00,VWS V13.01,2013-11-03 12:49:00,
2013-11-03 07:54:00,42.4,5.3,29.68,NNW,334,0.0,0.0,21,0.00,,---,0.00,VWS V13.01,2013-11-03 12:54:00,
2013-11-03 07:59:00,42.6,5.4,29.68,NNW,334,0.0,0.0,21,0.00,,---,0.00,VWS V13.01,2013-11-03 12:59:00,
2013-11-03 08:04:00,42.6,5.4,29.68,WNW,299,0.0,0.0,21,0.00,,---,0.00,VWS V13.01,2013-11-03 13:04:00,
2013-11-03 08:09:00,42.8,4.5,29.68,NNW,346,0.0,0.0,20,0.00,,---,0.00,VWS V13.01,2013-11-03 13:09:00,
2013-11-03 08:15:00,43.0,4.7,29.68,WNW,300,0.0,0.0,20,0.00,,---,0.00,VWS V13.01,2013-11-03 13:15:00,
2013-11-03 08:20:00,43.2,4.8,29.68,NNW,341,0.0,0.0,20,0.00,,---,0.00,VWS V13.01,2013-11-03 13:20:00,
2013-11-03 08:25:00,43.2,2.5,29.68,North,357,0.0,0.0,18,0.00,,---,0.00,VWS V13.01,2013-11-03 13:25:00,
2013-11-03 08:30:00,43.2,2.5,29.68,North,357,0.0,0.0,18,0.00,,---,0.00,VWS V13.01,2013-11-03 13:30:00,
2013-11-03 08:35:00,43.3,2.7,29.68,NW,318,0.0,0.0,18,0.00,,---,0.00,VWS V13.01,2013-11-03 13:35:00,
2013-11-03 08:40:00,43.7,3.0,29.68,NNW,327,0.0,0.0,18,0.00,,---,0.00,VWS V13.01,2013-11-03 13:40:00,
2013-11-03 08:45:00,44.1,3.3,29.71,NNW,332,0.0,0.0,18,0.00,,---,0.00,VWS V13.01,2013-11-03 13:45:00,
2013-11-03 08:50:00,44.2,3.4,29.71,NNW,341,0.0,0.0,18,0.00,,---,0.00,VWS V13.01,2013-11-03 13:50:00,
2013-11-03 08:55:00,44.2,3.4,29.71,North,357,0.0,0.0,18,0.00,,---,0.00,VWS V13.01,2013-11-03 13:55:00,
2013-11-03 09:00:00,44.6,2.5,29.71,NW,317,0.0,0.0,17,0.00,,---,0.00,VWS V13.01,2013-11-03 14:00:00,
2013-11-03 09:05:00,44.8,2.6,29.71,North,353,0.0,3.1,17,0.00,,---,0.00,VWS V13.01,2013-11-03 14:05:00,
2013-11-03 09:10:00,45.1,2.9,29.71,NNW,342,0.0,3.1,17,0.00,,---,0.00,VWS V13.01,2013-11-03 14:10:00,
2013-11-03 09:16:00,45.9,3.5,29.71,WNW,302,0.0,3.1,17,0.00,,---,0.00,VWS V13.01,2013-11-03 14:16:00,
2013-11-03 09:21:00,49.8,5.4,29.71,North,353,0.0,0.0,16,0.00,,---,0.00,VWS V13.01,2013-11-03 14:21:00,
2013-11-03 09:26:00,49.1,4.9,29.71,NW,320,0.0,0.0,16,0.00,,---,0.00,VWS V13.01,2013-11-03 14:26:00,
2013-11-03 09:31:00,47.8,5.2,29.71,NNE,22,0.0,2.7,17,0.00,,---,0.00,VWS V13.01,2013-11-03 14:31:00,
2013-11-03 09:36:00,49.5,5.2,29.71,NNW,330,0.0,2.7,16,0.00,,---,0.00,VWS V13.01,2013-11-03 14:36:00,
2013-11-03 09:41:00,49.8,5.4,29.71,WNW,289,0.0,0.0,16,0.00,,---,0.00,VWS V13.01,2013-11-03 14:41:00,
2013-11-03 09:46:00,50.9,6.3,29.71,North,7,0.0,0.0,16,0.00,,---,0.00,VWS V13.01,2013-11-03 14:46:00,
2013-11-03 09:51:00,51.3,6.6,29.71,North,349,0.0,0.0,16,0.00,,---,0.00,VWS V13.01,2013-11-03 14:51:00,
2013-11-03 09:56:00,52.9,7.9,29.71,WNW,298,0.0,6.5,16,0.00,,---,0.00,VWS V13.01,2013-11-03 14:56:00,
2013-11-03 10:01:00,52.5,7.6,29.71,North,353,0.0,0.0,16,0.00,,---,0.00,VWS V13.01,2013-11-03 15:01:00,
2013-11-03 10:06:00,53.8,7.2,29.71,NNW,340,0.0,0.0,15,0.00,,---,0.00,VWS V13.01,2013-11-03 15:06:00,
2013-11-03 10:12:00,52.7,7.8,29.71,North,357,0.0,4.5,16,0.00,,---,0.00,VWS V13.01,2013-11-03 15:12:00,
2013-11-03 10:17:00,52.5,7.6,29.74,North,6,0.0,4.5,16,0.00,,---,0.00,VWS V13.01,2013-11-03 15:17:00,
2013-11-03 10:22:00,53.1,8.1,29.74,WNW,298,0.0,4.5,16,0.00,,---,0.00,VWS V13.01,2013-11-03 15:22:00,
2013-11-03 10:27:00,54.0,7.4,29.74,NNW,346,0.0,4.5,15,0.00,,---,0.00,VWS V13.01,2013-11-03 15:27:00,
2013-11-03 10:32:00,54.1,7.5,29.74,North,353,0.0,4.5,15,0.00,,---,0.00,VWS V13.01,2013-11-03 15:32:00,
2013-11-03 10:37:00,53.1,8.1,29.74,North,353,0.0,7.4,16,0.00,,---,0.00,VWS V13.01,2013-11-03 15:37:00,
2013-11-03 10:42:00,52.5,7.6,29.74,North,11,0.0,3.1,16,0.00,,---,0.00,VWS V13.01,2013-11-03 15:42:00,
2013-11-03 10:47:00,50.4,5.9,29.74,NW,310,0.0,4.0,16,0.00,,---,0.00,VWS V13.01,2013-11-03 15:47:00,
2013-11-03 10:52:00,50.0,5.6,29.74,NNW,327,0.0,4.0,16,0.00,,---,0.00,VWS V13.01,2013-11-03 15:52:00,
2013-11-03 10:57:00,53.1,8.1,29.74,WNW,296,0.0,4.0,16,0.00,,---,0.00,VWS V13.01,2013-11-03 15:57:00,
2013-11-03 11:02:00,55.6,8.7,29.74,NW,319,0.0,2.7,15,0.00,,---,0.00,VWS V13.01,2013-11-03 16:02:00,
2013-11-03 11:08:00,57.6,8.7,29.74,NW,304,0.0,6.5,14,0.00,,---,0.00,VWS V13.01,2013-11-03 16:08:00,
2013-11-03 11:13:00,60.6,11.2,29.74,North,353,0.0,6.5,14,0.00,,---,0.00,VWS V13.01,2013-11-03 16:13:00,
2013-11-03 11:18:00,60.3,10.9,29.77,NNW,342,0.0,6.5,14,0.00,,---,0.00,VWS V13.01,2013-11-03 16:18:00,
2013-11-03 11:23:00,58.5,9.5,29.77,North,357,0.0,0.0,14,0.00,,---,0.00,VWS V13.01,2013-11-03 16:23:00,
2013-11-03 11:28:00,56.7,9.6,29.77,NW,317,0.0,3.1,15,0.00,,---,0.00,VWS V13.01,2013-11-03 16:28:00,
2013-11-03 11:33:00,53.2,8.2,29.77,WNW,289,0.0,4.5,16,0.00,,---,0.00,VWS V13.01,2013-11-03 16:33:00,
2013-11-03 11:38:00,52.0,7.2,29.77,NW,310,0.0,6.9,16,0.00,,---,0.00,VWS V13.01,2013-11-03 16:38:00,
2013-11-03 11:43:00,52.5,7.6,29.77,WNW,294,7.8,8.7,16,0.00,,---,0.00,VWS V13.01,2013-11-03 16:43:00,
2013-11-03 11:48:00,53.2,8.2,29.77,North,2,3.1,8.7,16,0.00,,---,0.00,VWS V13.01,2013-11-03 16:48:00,
2013-11-03 11:54:00,52.0,7.2,29.77,NNE,14,0.0,8.9,16,0.00,,---,0.00,VWS V13.01,2013-11-03 16:54:00,
2013-11-03 11:59:00,50.9,6.3,29.77,NNW,346,0.0,8.9,16,0.00,,---,0.00,VWS V13.01,2013-11-03 16:59:00,
2013-11-03 12:04:00,50.0,5.6,29.77,NE,44,0.0,0.0,16,0.00,,---,0.00,VWS V13.01,2013-11-03 17:04:00,
2013-11-03 12:09:00,49.5,5.2,29.77,NNW,344,0.0,6.0,16,0.00,,---,0.00,VWS V13.01,2013-11-03 17:09:00,
2013-11-03 12:14:00,49.8,5.4,29.77,North,353,0.0,8.3,16,0.00,,---,0.00,VWS V13.01,2013-11-03 17:14:00,
2013-11-03 12:19:00,50.2,5.7,29.77,NW,324,0.0,8.3,16,0.00,,---,0.00,VWS V13.01,2013-11-03 17:19:00,
2013-11-03 12:24:00,50.0,5.6,29.77,NW,312,0.0,4.5,16,0.00,,---,0.00,VWS V13.01,2013-11-03 17:24:00,
2013-11-03 12:29:00,50.4,5.9,29.77,NW,307,0.0,4.5,16,0.00,,---,0.00,VWS V13.01,2013-11-03 17:29:00,
2013-11-03 12:35:00,50.5,6.0,29.77,North,357,0.0,5.1,16,0.00,,---,0.00,VWS V13.01,2013-11-03 17:35:00,
2013-11-03 12:40:00,50.0,5.6,29.77,NNW,337,0.0,5.1,16,0.00,,---,0.00,VWS V13.01,2013-11-03 17:40:00,
2013-11-03 12:45:00,48.4,4.3,29.77,NNW,341,0.0,5.6,16,0.00,,---,0.00,VWS V13.01,2013-11-03 17:45:00,
2013-11-03 12:50:00,47.5,4.8,29.77,NW,308,0.0,5.6,17,0.00,,---,0.00,VWS V13.01,2013-11-03 17:50:00,
2013-11-03 12:55:00,47.3,4.7,29.77,West,280,0.0,5.6,17,0.00,,---,0.00,VWS V13.01,2013-11-03 17:55:00,
2013-11-03 13:00:00,47.1,4.6,29.77,WNW,284,0.0,6.0,17,0.00,,---,0.00,VWS V13.01,2013-11-03 18:00:00,
2013-11-03 13:05:00,47.3,4.7,29.77,North,353,0.0,6.0,17,0.00,,---,0.00,VWS V13.01,2013-11-03 18:05:00,
2013-11-03 13:10:00,47.5,4.8,29.77,NW,321,0.0,6.0,17,0.00,,---,0.00,VWS V13.01,2013-11-03 18:10:00,
2013-11-03 13:15:00,47.8,5.2,29.77,North,357,0.0,6.0,17,0.00,,---,0.00,VWS V13.01,2013-11-03 18:15:00,
2013-11-03 13:21:00,47.7,5.0,29.77,WNW,299,0.0,0.0,17,0.00,,---,0.00,VWS V13.01,2013-11-03 18:21:00,
2013-11-03 13:26:00,47.5,4.8,29.77,NNW,339,0.0,0.0,17,0.00,,---,0.00,VWS V13.01,2013-11-03 18:26:00,
2013-11-03 13:31:00,47.3,4.7,29.80,NNW,342,0.0,5.1,17,0.00,,---,0.00,VWS V13.01,2013-11-03 18:31:00,
2013-11-03 13:36:00,46.8,4.3,29.80,NNW,341,0.0,5.1,17,0.00,,---,0.00,VWS V13.01,2013-11-03 18:36:00,
2013-11-03 13:41:00,46.6,4.1,29.80,NNW,331,0.0,0.0,17,0.00,,---,0.00,VWS V13.01,2013-11-03 18:41:00,
2013-11-03 13:46:00,46.9,4.4,29.80,WNW,294,0.0,2.7,17,0.00,,---,0.00,VWS V13.01,2013-11-03 18:46:00,
2013-11-03 13:51:00,47.1,4.6,29.80,WNW,298,0.0,3.6,17,0.00,,---,0.00,VWS V13.01,2013-11-03 18:51:00,
2013-11-03 13:56:00,46.8,4.3,29.80,NNW,328,0.0,4.7,17,0.00,,---,0.00,VWS V13.01,2013-11-03 18:56:00,
2013-11-03 14:01:00,46.8,4.3,29.80,WNW,293,0.0,0.0,17,0.00,,---,0.00,VWS V13.01,2013-11-03 19:01:00,
2013-11-03 14:07:00,46.8,4.3,29.80,North,353,3.1,4.0,17,0.00,,---,0.00,VWS V13.01,2013-11-03 19:07:00,
2013-11-03 14:12:00,46.6,4.1,29.80,NE,43,0.0,4.5,17,0.00,,---,0.00,VWS V13.01,2013-11-03 19:12:00,
2013-11-03 14:17:00,45.9,3.5,29.80,North,353,0.0,4.5,17,0.00,,---,0.00,VWS V13.01,2013-11-03 19:17:00,
2013-11-03 14:22:00,45.0,2.8,29.80,WNW,299,0.0,5.1,17,0.00,,---,0.00,VWS V13.01,2013-11-03 19:22:00,
2013-11-03 14:27:00,45.1,2.9,29.80,NNW,346,0.0,5.1,17,0.00,,---,0.00,VWS V13.01,2013-11-03 19:27:00,
2013-11-03 14:32:00,45.7,3.4,29.80,WNW,287,0.0,5.1,17,0.00,,---,0.00,VWS V13.01,2013-11-03 19:32:00,
2013-11-03 14:37:00,45.7,3.4,29.80,NNW,331,0.0,6.0,17,0.00,,---,0.00,VWS V13.01,2013-11-03 19:37:00,
2013-11-03 14:42:00,45.9,3.5,29.80,NNW,342,0.0,10.3,17,0.00,,---,0.00,VWS V13.01,2013-11-03 19:42:00,
2013-11-03 14:47:00,45.7,3.4,29.83,NE,43,0.0,10.3,17,0.00,,---,0.00,VWS V13.01,2013-11-03 19:47:00,
2013-11-03 14:52:00,45.1,2.9,29.83,North,353,0.0,10.3,17,0.00,,---,0.00,VWS V13.01,2013-11-03 19:52:00,
2013-11-03 14:58:00,44.8,2.6,29.83,East,90,0.0,10.3,17,0.00,,---,0.00,VWS V13.01,2013-11-03 19:58:00,
2013-11-03 15:03:00,44.6,2.5,29.83,NNW,345,0.0,2.7,17,0.00,,---,0.00,VWS V13.01,2013-11-03 20:03:00,
2013-11-03 15:08:00,44.2,3.4,29.83,NNW,334,0.0,2.7,18,0.00,,---,0.00,VWS V13.01,2013-11-03 20:08:00,
2013-11-03 15:13:00,44.1,3.3,29.83,NW,304,0.0,2.7,18,0.00,,---,0.00,VWS V13.01,2013-11-03 20:13:00,
2013-11-03 15:18:00,44.1,3.3,29.83,North,357,0.0,3.1,18,0.00,,---,0.00,VWS V13.01,2013-11-03 20:18:00,
2013-11-03 15:23:00,44.1,3.3,29.83,NNW,337,0.0,0.0,18,0.00,,---,0.00,VWS V13.01,2013-11-03 20:23:00,
2013-11-03 15:28:00,43.7,3.0,29.83,NNW,333,0.0,5.6,18,0.00,,---,0.00,VWS V13.01,2013-11-03 20:28:00,
2013-11-03 15:33:00,43.5,2.8,29.83,North,350,0.0,6.5,18,0.00,,---,0.00,VWS V13.01,2013-11-03 20:33:00,
2013-11-03 15:38:00,43.3,2.7,29.83,NNW,337,0.0,6.5,18,0.00,,---,0.00,VWS V13.01,2013-11-03 20:38:00,
2013-11-03 15:44:00,43.2,2.5,29.85,NNE,23,0.0,3.6,18,0.00,,---,0.00,VWS V13.01,2013-11-03 20:44:00,
2013-11-03 15:49:00,43.0,2.4,29.85,NNW,340,0.0,5.6,18,0.00,,---,0.00,VWS V13.01,2013-11-03 20:49:00,
2013-11-03 15:54:00,42.8,2.2,29.85,ENE,65,0.0,5.6,18,0.00,,---,0.00,VWS V13.01,2013-11-03 20:54:00,
2013-11-03 15:59:00,42.4,1.9,29.85,NNW,342,0.0,5.6,18,0.00,,---,0.00,VWS V13.01,2013-11-03 20:59:00,
2013-11-03 16:04:00,42.3,1.8,29.85,North,353,0.0,4.0,18,0.00,,---,0.00,VWS V13.01,2013-11-03 21:04:00,
2013-11-03 16:09:00,42.1,1.6,29.85,WNW,302,0.0,4.0,18,0.00,,---,0.00,VWS V13.01,2013-11-03 21:09:00,
2013-11-03 16:14:00,41.7,1.4,29.85,NNW,327,0.0,5.6,18,0.00,,---,0.00,VWS V13.01,2013-11-03 21:14:00,
2013-11-03 16:19:00,41.4,1.0,29.85,NNW,333,0.0,7.4,18,0.00,,---,0.00,VWS V13.01,2013-11-03 21:19:00,
2013-11-03 16:25:00,41.0,0.8,29.85,NNW,343,0.0,6.5,18,0.00,,---,0.00,VWS V13.01,2013-11-03 21:25:00,
2013-11-03 16:30:00,40.5,0.3,29.88,NNW,339,0.0,6.5,18,0.00,,---,0.00,VWS V13.01,2013-11-03 21:30:00,
2013-11-03 16:35:00,40.1,0.0,29.88,NNW,343,0.0,6.5,18,0.00,,---,0.00,VWS V13.01,2013-11-03 21:35:00,
2013-11-03 16:40:00,39.7,-0.3,29.88,North,353,0.0,0.0,18,0.00,,---,0.00,VWS V13.01,2013-11-03 21:40:00,
2013-11-03 16:45:00,39.4,-0.6,29.88,NW,315,0.0,5.6,18,0.00,,---,0.00,VWS V13.01,2013-11-03 21:45:00,
2013-11-03 16:50:00,39.2,-0.7,29.88,NNW,337,0.0,5.6,18,0.00,,---,0.00,VWS V13.01,2013-11-03 21:50:00,
2013-11-03 16:55:00,39.0,0.3,29.88,NNW,342,0.0,10.3,19,0.00,,---,0.00,VWS V13.01,2013-11-03 21:55:00,
2013-11-03 17:01:00,38.8,0.1,29.88,NNW,330,0.0,0.0,19,0.00,,---,0.00,VWS V13.01,2013-11-03 22:01:00,
2013-11-03 17:06:00,38.5,-0.2,29.88,North,353,0.0,0.0,19,0.00,,---,0.00,VWS V13.01,2013-11-03 22:06:00,
2013-11-03 17:11:00,38.3,-0.3,29.88,NNW,332,0.0,0.0,19,0.00,,---,0.00,VWS V13.01,2013-11-03 22:11:00,
2013-11-03 17:16:00,38.1,-0.5,29.91,NNW,337,0.0,0.0,19,0.00,,---,0.00,VWS V13.01,2013-11-03 22:16:00,
2013-11-03 17:21:00,38.1,-0.5,29.91,NNW,340,0.0,0.0,19,0.00,,---,0.00,VWS V13.01,2013-11-03 22:21:00,
2013-11-03 17:26:00,37.9,-0.6,29.91,NNW,341,0.0,0.0,19,0.00,,---,0.00,VWS V13.01,2013-11-03 22:26:00,
2013-11-03 17:31:00,37.8,-0.8,29.91,WNW,291,0.0,0.0,19,0.00,,---,0.00,VWS V13.01,2013-11-03 22:31:00,
2013-11-03 17:36:00,37.8,-0.8,29.91,NNW,334,0.0,0.0,19,0.00,,---,0.00,VWS V13.01,2013-11-03 22:36:00,
2013-11-03 17:41:00,37.6,-0.9,29.91,NNW,327,0.0,0.0,19,0.00,,---,0.00,VWS V13.01,2013-11-03 22:41:00,
2013-11-03 17:47:00,37.6,-0.9,29.91,North,353,0.0,0.0,19,0.00,,---,0.00,VWS V13.01,2013-11-03 22:47:00,
2013-11-03 17:52:00,37.4,-1.1,29.91,NNW,338,0.0,4.5,19,0.00,,---,0.00,VWS V13.01,2013-11-03 22:52:00,
2013-11-03 17:57:00,37.4,-1.1,29.91,WNW,300,0.0,4.5,19,0.00,,---,0.00,VWS V13.01,2013-11-03 22:57:00,
2013-11-03 18:02:00,37.2,-1.2,29.91,North,353,0.0,0.0,19,0.00,,---,0.00,VWS V13.01,2013-11-03 23:02:00,
2013-11-03 18:07:00,37.2,-1.2,29.91,NW,325,0.0,0.0,19,0.00,,---,0.00,VWS V13.01,2013-11-03 23:07:00,
2013-11-03 18:12:00,37.0,-1.4,29.91,NW,312,0.0,0.0,19,0.00,,---,0.00,VWS V13.01,2013-11-03 23:12:00,
2013-11-03 18:17:00,37.0,-1.4,29.94,NNW,345,0.0,0.0,19,0.00,,---,0.00,VWS V13.01,2013-11-03 23:17:00,
2013-11-03 18:23:00,37.0,-1.4,29.94,NW,313,0.0,0.0,19,0.00,,---,0.00,VWS V13.01,2013-11-03 23:23:00,
2013-11-03 18:28:00,37.0,-1.4,29.94,NNW,332,0.0,0.0,19,0.00,,---,0.00,VWS V13.01,2013-11-03 23:28:00,
2013-11-03 18:33:00,36.9,-1.5,29.94,NW,309,0.0,0.0,19,0.00,,---,0.00,VWS V13.01,2013-11-03 23:33:00,
2013-11-03 18:38:00,36.9,-1.5,29.94,NW,319,0.0,0.0,19,0.00,,---,0.00,VWS V13.01,2013-11-03 23:38:00,
2013-11-03 18:43:00,36.7,-1.7,29.94,NW,319,0.0,0.0,19,0.00,,---,0.00,VWS V13.01,2013-11-03 23:43:00,
2013-11-03 18:48:00,36.7,-1.7,29.94,NNW,334,0.0,0.0,19,0.00,,---,0.00,VWS V13.01,2013-11-03 23:48:00,
2013-11-03 18:53:00,36.5,-1.8,29.94,WNW,295,0.0,0.0,19,0.00,,---,0.00,VWS V13.01,2013-11-03 23:53:00,
2013-11-03 18:58:00,36.3,-2.0,29.94,NW,311,0.0,0.0,19,0.00,,---,0.00,VWS V13.01,2013-11-03 23:58:00,
2013-11-03 19:04:00,36.3,-2.0,29.94,NNW,342,0.0,0.0,19,0.00,,---,0.00,VWS V13.01,2013-11-04 00:04:00,
2013-11-03 19:09:00,36.3,-2.0,29.94,NW,313,0.0,0.0,19,0.00,,---,0.00,VWS V13.01,2013-11-04 00:09:00,
2013-11-03 19:14:00,36.3,-2.0,29.94,NNW,337,0.0,0.0,19,0.00,,---,0.00,VWS V13.01,2013-11-04 00:14:00,
2013-11-03 19:19:00,36.1,-2.1,29.94,NW,304,0.0,0.0,19,0.00,,---,0.00,VWS V13.01,2013-11-04 00:19:00,
2013-11-03 19:24:00,36.1,-2.1,29.94,NW,308,0.0,0.0,19,0.00,,---,0.00,VWS V13.01,2013-11-04 00:24:00,
2013-11-03 19:29:00,36.1,-2.1,29.97,NW,324,0.0,0.0,19,0.00,,---,0.00,VWS V13.01,2013-11-04 00:29:00,
2013-11-03 19:35:00,36.1,-2.1,29.97,NW,306,0.0,0.0,19,0.00,,---,0.00,VWS V13.01,2013-11-04 00:35:00,
2013-11-03 19:40:00,35.8,-2.4,29.97,North,353,0.0,0.0,19,0.00,,---,0.00,VWS V13.01,2013-11-04 00:40:00,
2013-11-03 19:45:00,35.6,-2.6,29.97,NNE,24,0.0,0.0,19,0.00,,---,0.00,VWS V13.01,2013-11-04 00:45:00,
2013-11-03 19:50:00,35.6,-2.6,29.97,NNW,344,0.0,0.0,19,0.00,,---,0.00,VWS V13.01,2013-11-04 00:50:00,
2013-11-03 19:55:00,35.6,-2.6,29.97,North,353,0.0,0.0,19,0.00,,---,0.00,VWS V13.01,2013-11-04 00:55:00,
2013-11-03 20:00:00,35.6,-2.6,29.97,North,357,0.0,0.0,19,0.00,,---,0.00,VWS V13.01,2013-11-04 01:00:00,
2013-11-03 20:06:00,35.4,-1.6,29.97,NW,313,0.0,0.0,20,0.00,,---,0.00,VWS V13.01,2013-11-04 01:06:00,
2013-11-03 20:11:00,35.2,-1.8,29.97,NNW,334,0.0,0.0,20,0.00,,---,0.00,VWS V13.01,2013-11-04 01:11:00,
2013-11-03 20:16:00,35.2,-1.8,29.97,NNW,345,0.0,0.0,20,0.00,,---,0.00,VWS V13.01,2013-11-04 01:16:00,
2013-11-03 20:21:00,35.4,-1.6,29.97,NNW,345,0.0,0.0,20,0.00,,---,0.00,VWS V13.01,2013-11-04 01:21:00,
2013-11-03 20:26:00,35.2,-1.8,29.97,North,353,0.0,0.0,20,0.00,,---,0.00,VWS V13.01,2013-11-04 01:26:00,
2013-11-03 20:31:00,35.2,-1.8,29.97,North,353,0.0,0.0,20,0.00,,---,0.00,VWS V13.01,2013-11-04 01:31:00,
2013-11-03 20:37:00,35.1,-2.0,29.97,North,353,0.0,0.0,20,0.00,,---,0.00,VWS V13.01,2013-11-04 01:37:00,
2013-11-03 20:42:00,35.1,-2.0,29.97,North,357,0.0,0.0,20,0.00,,---,0.00,VWS V13.01,2013-11-04 01:42:00,
2013-11-03 20:47:00,35.1,-2.0,29.97,North,353,0.0,0.0,20,0.00,,---,0.00,VWS V13.01,2013-11-04 01:47:00,
2013-11-03 20:52:00,34.9,-2.1,29.97,NNW,342,0.0,0.0,20,0.00,,---,0.00,VWS V13.01,2013-11-04 01:52:00,
2013-11-03 20:57:00,34.9,-2.1,29.97,North,349,0.0,0.0,20,0.00,,---,0.00,VWS V13.01,2013-11-04 01:57:00,
2013-11-03 21:02:00,34.9,-2.1,30.00,NNW,341,0.0,0.0,20,0.00,,---,0.00,VWS V13.01,2013-11-04 02:02:00,
2013-11-03 21:07:00,34.7,-2.3,30.00,NNW,340,0.0,0.0,20,0.00,,---,0.00,VWS V13.01,2013-11-04 02:07:00,
2013-11-03 21:13:00,34.7,-2.3,30.00,NNW,338,0.0,0.0,20,0.00,,---,0.00,VWS V13.01,2013-11-04 02:13:00,
2013-11-03 21:18:00,34.5,-2.4,30.00,NNW,342,0.0,0.0,20,0.00,,---,0.00,VWS V13.01,2013-11-04 02:18:00,
2013-11-03 21:23:00,34.3,-2.6,30.00,NNW,338,0.0,0.0,20,0.00,,---,0.00,VWS V13.01,2013-11-04 02:23:00,
2013-11-03 21:28:00,34.3,-2.6,30.00,NW,326,0.0,0.0,20,0.00,,---,0.00,VWS V13.01,2013-11-04 02:28:00,
2013-11-03 21:33:00,34.3,-2.6,30.00,NW,321,0.0,0.0,20,0.00,,---,0.00,VWS V13.01,2013-11-04 02:33:00,
2013-11-03 21:38:00,34.3,-2.6,30.00,North,353,0.0,0.0,20,0.00,,---,0.00,VWS V13.01,2013-11-04 02:38:00,
2013-11-03 21:44:00,34.3,-2.6,30.00,North,349,0.0,0.0,20,0.00,,---,0.00,VWS V13.01,2013-11-04 02:44:00,
2013-11-03 21:49:00,34.3,-2.6,30.00,NNE,22,0.0,0.0,20,0.00,,---,0.00,VWS V13.01,2013-11-04 02:49:00,
2013-11-03 21:54:00,34.3,-2.6,30.00,North,353,0.0,0.0,20,0.00,,---,0.00,VWS V13.01,2013-11-04 02:54:00,
2013-11-03 21:59:00,34.3,-2.6,30.00,NNW,334,0.0,0.0,20,0.00,,---,0.00,VWS V13.01,2013-11-04 02:59:00,
2013-11-03 22:04:00,34.2,-2.7,30.00,NNW,339,0.0,0.0,20,0.00,,---,0.00,VWS V13.01,2013-11-04 03:04:00,
2013-11-03 22:09:00,34.0,-2.9,30.00,NW,323,0.0,0.0,20,0.00,,---,0.00,VWS V13.01,2013-11-04 03:09:00,
2013-11-03 22:14:00,34.0,-2.9,30.03,North,353,0.0,0.0,20,0.00,,---,0.00,VWS V13.01,2013-11-04 03:14:00,
2013-11-03 22:20:00,34.0,-2.9,30.03,NNW,341,0.0,0.0,20,0.00,,---,0.00,VWS V13.01,2013-11-04 03:20:00,
2013-11-03 22:25:00,34.0,-2.9,30.03,NNE,19,0.0,0.0,20,0.00,,---,0.00,VWS V13.01,2013-11-04 03:25:00,
2013-11-03 22:30:00,33.8,-3.0,30.03,NNW,333,0.0,0.0,20,0.00,,---,0.00,VWS V13.01,2013-11-04 03:30:00,
2013-11-03 22:35:00,33.8,-3.0,30.03,North,353,0.0,0.0,20,0.00,,---,0.00,VWS V13.01,2013-11-04 03:35:00,
2013-11-03 22:40:00,33.6,-3.2,30.03,NW,326,0.0,0.0,20,0.00,,---,0.00,VWS V13.01,2013-11-04 03:40:00,
2013-11-03 22:45:00,33.4,-3.3,30.03,NW,314,0.0,0.0,20,0.00,,---,0.00,VWS V13.01,2013-11-04 03:45:00,
2013-11-03 22:50:00,33.4,-3.3,30.03,NNW,338,0.0,0.0,20,0.00,,---,0.00,VWS V13.01,2013-11-04 03:50:00,
2013-11-03 22:56:00,33.4,-3.3,30.03,NW,316,0.0,3.1,20,0.00,,---,0.00,VWS V13.01,2013-11-04 03:56:00,
2013-11-03 23:01:00,33.4,-3.3,30.03,NNE,12,0.0,0.0,20,0.00,,---,0.00,VWS V13.01,2013-11-04 04:01:00,
2013-11-03 23:06:00,33.4,-3.3,30.03,NNW,334,0.0,0.0,20,0.00,,---,0.00,VWS V13.01,2013-11-04 04:06:00,
2013-11-03 23:11:00,33.3,-3.5,30.03,NNW,334,0.0,0.0,20,0.00,,---,0.00,VWS V13.01,2013-11-04 04:11:00,
2013-11-03 23:16:00,33.1,-3.6,30.03,NNW,334,0.0,0.0,20,0.00,,---,0.00,VWS V13.01,2013-11-04 04:16:00,
2013-11-03 23:21:00,32.9,-3.8,30.03,NNW,334,0.0,0.0,20,0.00,,---,0.00,VWS V13.01,2013-11-04 04:21:00,
2013-11-03 23:26:00,32.7,-3.9,30.03,NNW,334,0.0,0.0,20,0.00,,---,0.00,VWS V13.01,2013-11-04 04:26:00,
2013-11-03 23:32:00,32.5,-4.1,30.06,NNW,334,0.0,0.0,20,0.00,,---,0.00,VWS V13.01,2013-11-04 04:32:00,
2013-11-03 23:37:00,32.5,-6.2,30.06,NNW,335,0.0,0.0,18,0.00,,---,0.00,VWS V13.01,2013-11-04 04:37:00,
2013-11-03 23:42:00,32.4,-6.4,30.06,NNW,337,0.0,0.0,18,0.00,,---,0.00,VWS V13.01,2013-11-04 04:42:00,
2013-11-03 23:47:00,32.2,-6.6,30.06,NNW,335,0.0,0.0,18,0.00,,---,0.00,VWS V13.01,2013-11-04 04:47:00,
2013-11-03 23:52:00,32.2,-6.6,30.06,North,357,0.0,0.0,18,0.00,,---,0.00,VWS V13.01,2013-11-04 04:52:00,
2013-11-03 23:57:00,32.0,-6.7,30.06,North,357,0.0,0.0,18,0.00,,---,0.00,VWS V13.01,2013-11-04 04:57:00,